sensor_id;sensor_type;location;lat;lon;timestamp;P1;durP1;ratioP1;P2;durP2;ratioP2
51738;SDS011;37815;52.692;6.226;2022-09-03T00:03:37;2.58;;;1.90;;
51738;SDS011;37815;52.692;6.226;2022-09-03T00:09:08;1.90;;;1.80;;
51738;SDS011;37815;52.692;6.226;2022-09-03T00:14:35;2.88;;;2.10;;
51738;SDS011;37815;52.692;6.226;2022-09-03T00:20:00;5.05;;;2.17;;
51738;SDS011;37815;52.692;6.226;2022-09-03T00:25:37;2.67;;;1.80;;
51738;SDS011;37815;52.692;6.226;2022-09-03T00:31:21;2.85;;;1.80;;
51738;SDS011;37815;52.692;6.226;2022-09-03T00:37:00;3.28;;;1.70;;
51738;SDS011;37815;52.692;6.226;2022-09-03T00:47:59;2.85;;;1.83;;
51738;SDS011;37815;52.692;6.226;2022-09-03T01:10:24;3.00;;;2.00;;
51738;SDS011;37815;52.692;6.226;2022-09-03T01:32:50;1.95;;;1.70;;
51738;SDS011;37815;52.692;6.226;2022-09-03T01:43:40;1.58;;;1.48;;
51738;SDS011;37815;52.692;6.226;2022-09-03T01:55:08;2.33;;;1.40;;
51738;SDS011;37815;52.692;6.226;2022-09-03T02:01:02;2.55;;;1.58;;
51738;SDS011;37815;52.692;6.226;2022-09-03T02:06:28;2.22;;;1.70;;
51738;SDS011;37815;52.692;6.226;2022-09-03T02:11:53;1.55;;;1.45;;
51738;SDS011;37815;52.692;6.226;2022-09-03T02:17:38;1.55;;;1.45;;
51738;SDS011;37815;52.692;6.226;2022-09-03T02:23:00;1.67;;;1.40;;
51738;SDS011;37815;52.692;6.226;2022-09-03T02:28:20;1.80;;;1.30;;
51738;SDS011;37815;52.692;6.226;2022-09-03T02:33:41;3.55;;;1.23;;
51738;SDS011;37815;52.692;6.226;2022-09-03T02:39:04;1.75;;;1.27;;
51738;SDS011;37815;52.692;6.226;2022-09-03T02:44:28;1.45;;;1.35;;
51738;SDS011;37815;52.692;6.226;2022-09-03T02:55:10;3.13;;;2.45;;
51738;SDS011;37815;52.692;6.226;2022-09-03T03:00:29;3.05;;;1.40;;
51738;SDS011;37815;52.692;6.226;2022-09-03T03:05:50;1.00;;;1.00;;
51738;SDS011;37815;52.692;6.226;2022-09-03T03:11:15;1.27;;;1.17;;
51738;SDS011;37815;52.692;6.226;2022-09-03T03:16:35;1.30;;;1.20;;
51738;SDS011;37815;52.692;6.226;2022-09-03T03:21:55;1.40;;;1.30;;
51738;SDS011;37815;52.692;6.226;2022-09-03T03:27:14;1.40;;;1.00;;
51738;SDS011;37815;52.692;6.226;2022-09-03T03:32:34;2.28;;;0.95;;
51738;SDS011;37815;52.692;6.226;2022-09-03T03:37:56;2.28;;;1.30;;
51738;SDS011;37815;52.692;6.226;2022-09-03T03:43:16;1.70;;;1.20;;
51738;SDS011;37815;52.692;6.226;2022-09-03T03:48:36;1.30;;;1.20;;
51738;SDS011;37815;52.692;6.226;2022-09-03T03:53:56;1.23;;;1.00;;
51738;SDS011;37815;52.692;6.226;2022-09-03T03:59:16;0.90;;;0.90;;
51738;SDS011;37815;52.692;6.226;2022-09-03T04:04:35;1.42;;;1.10;;
51738;SDS011;37815;52.692;6.226;2022-09-03T04:09:54;1.50;;;1.15;;
51738;SDS011;37815;52.692;6.226;2022-09-03T04:15:14;1.27;;;0.90;;
51738;SDS011;37815;52.692;6.226;2022-09-03T04:20:36;1.33;;;1.08;;
51738;SDS011;37815;52.692;6.226;2022-09-03T04:25:56;1.35;;;0.82;;
51738;SDS011;37815;52.692;6.226;2022-09-03T04:31:17;0.90;;;0.90;;
51738;SDS011;37815;52.692;6.226;2022-09-03T04:36:38;2.03;;;0.90;;
51738;SDS011;37815;52.692;6.226;2022-09-03T04:41:57;1.60;;;1.13;;
51738;SDS011;37815;52.692;6.226;2022-09-03T04:47:16;1.00;;;0.90;;
51738;SDS011;37815;52.692;6.226;2022-09-03T04:52:35;3.38;;;0.85;;
51738;SDS011;37815;52.692;6.226;2022-09-03T04:57:55;2.22;;;1.00;;
51738;SDS011;37815;52.692;6.226;2022-09-03T05:03:16;0.98;;;0.90;;
51738;SDS011;37815;52.692;6.226;2022-09-03T05:08:35;1.00;;;0.90;;
51738;SDS011;37815;52.692;6.226;2022-09-03T05:13:55;0.77;;;0.75;;
51738;SDS011;37815;52.692;6.226;2022-09-03T05:19:16;1.85;;;0.88;;
51738;SDS011;37815;52.692;6.226;2022-09-03T05:24:35;1.08;;;0.93;;
51738;SDS011;37815;52.692;6.226;2022-09-03T05:29:54;1.40;;;1.08;;
51738;SDS011;37815;52.692;6.226;2022-09-03T05:35:13;0.98;;;0.77;;
51738;SDS011;37815;52.692;6.226;2022-09-03T05:40:33;2.15;;;0.90;;
51738;SDS011;37815;52.692;6.226;2022-09-03T05:45:57;1.02;;;0.93;;
51738;SDS011;37815;52.692;6.226;2022-09-03T05:51:18;1.90;;;1.17;;
51738;SDS011;37815;52.692;6.226;2022-09-03T05:56:38;0.90;;;0.80;;
51738;SDS011;37815;52.692;6.226;2022-09-03T06:01:57;1.15;;;0.90;;
51738;SDS011;37815;52.692;6.226;2022-09-03T06:07:17;1.15;;;0.80;;
51738;SDS011;37815;52.692;6.226;2022-09-03T06:12:37;0.93;;;0.85;;
51738;SDS011;37815;52.692;6.226;2022-09-03T06:17:56;0.77;;;0.77;;
51738;SDS011;37815;52.692;6.226;2022-09-03T06:23:15;3.50;;;0.93;;
51738;SDS011;37815;52.692;6.226;2022-09-03T06:28:37;0.90;;;0.90;;
51738;SDS011;37815;52.692;6.226;2022-09-03T06:33:58;1.63;;;1.00;;
51738;SDS011;37815;52.692;6.226;2022-09-03T06:39:18;0.80;;;0.80;;
51738;SDS011;37815;52.692;6.226;2022-09-03T06:44:37;1.13;;;1.00;;
51738;SDS011;37815;52.692;6.226;2022-09-03T06:49:56;2.08;;;1.00;;
51738;SDS011;37815;52.692;6.226;2022-09-03T06:55:18;0.98;;;0.80;;
51738;SDS011;37815;52.692;6.226;2022-09-03T07:00:37;1.10;;;1.00;;
51738;SDS011;37815;52.692;6.226;2022-09-03T07:06:00;1.92;;;0.90;;
51738;SDS011;37815;52.692;6.226;2022-09-03T07:11:24;1.00;;;0.90;;
51738;SDS011;37815;52.692;6.226;2022-09-03T07:16:45;0.65;;;0.65;;
51738;SDS011;37815;52.692;6.226;2022-09-03T07:22:06;1.40;;;1.00;;
51738;SDS011;37815;52.692;6.226;2022-09-03T07:27:27;1.00;;;0.90;;
51738;SDS011;37815;52.692;6.226;2022-09-03T07:32:47;1.50;;;0.88;;
51738;SDS011;37815;52.692;6.226;2022-09-03T07:38:09;1.73;;;0.90;;
51738;SDS011;37815;52.692;6.226;2022-09-03T07:43:32;1.88;;;1.00;;
51738;SDS011;37815;52.692;6.226;2022-09-03T07:48:55;2.00;;;0.90;;
51738;SDS011;37815;52.692;6.226;2022-09-03T07:54:15;0.90;;;0.70;;
51738;SDS011;37815;52.692;6.226;2022-09-03T07:59:35;1.17;;;0.80;;
51738;SDS011;37815;52.692;6.226;2022-09-03T08:05:03;1.48;;;0.80;;
51738;SDS011;37815;52.692;6.226;2022-09-03T08:10:39;1.98;;;1.05;;
51738;SDS011;37815;52.692;6.226;2022-09-03T08:15:59;1.88;;;1.00;;
51738;SDS011;37815;52.692;6.226;2022-09-03T08:21:20;1.60;;;1.10;;
51738;SDS011;37815;52.692;6.226;2022-09-03T08:26:40;0.80;;;0.80;;
51738;SDS011;37815;52.692;6.226;2022-09-03T08:32:01;0.88;;;0.88;;
51738;SDS011;37815;52.692;6.226;2022-09-03T08:37:21;1.30;;;0.95;;
51738;SDS011;37815;52.692;6.226;2022-09-03T08:48:26;1.42;;;0.90;;
51738;SDS011;37815;52.692;6.226;2022-09-03T08:53:48;1.25;;;0.75;;
51738;SDS011;37815;52.692;6.226;2022-09-03T08:59:12;2.35;;;1.00;;
51738;SDS011;37815;52.692;6.226;2022-09-03T09:15:42;1.92;;;1.50;;
51738;SDS011;37815;52.692;6.226;2022-09-03T09:21:36;2.45;;;1.38;;
51738;SDS011;37815;52.692;6.226;2022-09-03T09:27:04;1.33;;;1.00;;
51738;SDS011;37815;52.692;6.226;2022-09-03T09:32:24;1.58;;;1.20;;
51738;SDS011;37815;52.692;6.226;2022-09-03T09:37:50;1.48;;;1.38;;
51738;SDS011;37815;52.692;6.226;2022-09-03T09:48:12;1.92;;;1.25;;
51738;SDS011;37815;52.692;6.226;2022-09-03T09:59:22;2.23;;;1.37;;
51738;SDS011;37815;52.692;6.226;2022-09-03T10:04:41;1.33;;;1.10;;
51738;SDS011;37815;52.692;6.226;2022-09-03T10:10:05;2.95;;;1.30;;
51738;SDS011;37815;52.692;6.226;2022-09-03T10:15:39;4.50;;;1.30;;
51738;SDS011;37815;52.692;6.226;2022-09-03T10:21:07;6.40;;;1.38;;
51738;SDS011;37815;52.692;6.226;2022-09-03T10:26:30;3.35;;;1.38;;
51738;SDS011;37815;52.692;6.226;2022-09-03T10:59:35;2.50;;;1.15;;
51738;SDS011;37815;52.692;6.226;2022-09-03T11:05:07;4.85;;;1.20;;
51738;SDS011;37815;52.692;6.226;2022-09-03T11:10:34;1.17;;;1.08;;
51738;SDS011;37815;52.692;6.226;2022-09-03T11:16:09;1.10;;;1.00;;
51738;SDS011;37815;52.692;6.226;2022-09-03T11:21:36;1.92;;;1.20;;
51738;SDS011;37815;52.692;6.226;2022-09-03T11:43:37;2.65;;;1.33;;
51738;SDS011;37815;52.692;6.226;2022-09-03T11:49:11;1.75;;;1.23;;
51738;SDS011;37815;52.692;6.226;2022-09-03T11:54:32;1.98;;;1.33;;
51738;SDS011;37815;52.692;6.226;2022-09-03T12:00:11;3.13;;;1.30;;
51738;SDS011;37815;52.692;6.226;2022-09-03T12:22:44;2.47;;;1.27;;
51738;SDS011;37815;52.692;6.226;2022-09-03T12:28:10;2.45;;;1.17;;
51738;SDS011;37815;52.692;6.226;2022-09-03T12:33:30;1.75;;;1.20;;
51738;SDS011;37815;52.692;6.226;2022-09-03T12:38:51;1.27;;;1.17;;
51738;SDS011;37815;52.692;6.226;2022-09-03T12:44:10;3.42;;;1.30;;
51738;SDS011;37815;52.692;6.226;2022-09-03T12:49:37;2.13;;;1.35;;
51738;SDS011;37815;52.692;6.226;2022-09-03T12:55:00;1.83;;;1.10;;
51738;SDS011;37815;52.692;6.226;2022-09-03T13:00:24;1.42;;;1.20;;
51738;SDS011;37815;52.692;6.226;2022-09-03T13:05:47;7.50;;;1.20;;
51738;SDS011;37815;52.692;6.226;2022-09-03T13:11:17;5.87;;;1.20;;
51738;SDS011;37815;52.692;6.226;2022-09-03T13:33:33;2.00;;;1.00;;
51738;SDS011;37815;52.692;6.226;2022-09-03T13:39:05;2.85;;;1.17;;
51738;SDS011;37815;52.692;6.226;2022-09-03T13:44:46;2.17;;;1.30;;
51738;SDS011;37815;52.692;6.226;2022-09-03T13:50:19;2.35;;;1.20;;
51738;SDS011;37815;52.692;6.226;2022-09-03T14:01:21;1.45;;;1.17;;
51738;SDS011;37815;52.692;6.226;2022-09-03T14:06:59;3.80;;;1.30;;
51738;SDS011;37815;52.692;6.226;2022-09-03T14:12:28;2.28;;;1.23;;
51738;SDS011;37815;52.692;6.226;2022-09-03T14:24:03;1.23;;;1.02;;
51738;SDS011;37815;52.692;6.226;2022-09-03T14:29:57;2.90;;;1.05;;
51738;SDS011;37815;52.692;6.226;2022-09-03T14:35:35;2.60;;;1.58;;
51738;SDS011;37815;52.692;6.226;2022-09-03T14:53:46;2.22;;;1.30;;
51738;SDS011;37815;52.692;6.226;2022-09-03T15:04:50;1.15;;;1.00;;
51738;SDS011;37815;52.692;6.226;2022-09-03T15:10:37;3.08;;;1.20;;
51738;SDS011;37815;52.692;6.226;2022-09-03T15:33:20;2.50;;;1.40;;
51738;SDS011;37815;52.692;6.226;2022-09-03T15:38:57;2.97;;;1.63;;
51738;SDS011;37815;52.692;6.226;2022-09-03T15:44:21;1.92;;;1.70;;
51738;SDS011;37815;52.692;6.226;2022-09-03T16:18:42;4.82;;;2.60;;
51738;SDS011;37815;52.692;6.226;2022-09-03T16:24:25;4.03;;;1.60;;
51738;SDS011;37815;52.692;6.226;2022-09-03T16:30:10;4.15;;;1.88;;
51738;SDS011;37815;52.692;6.226;2022-09-03T16:41:39;2.15;;;1.52;;
51738;SDS011;37815;52.692;6.226;2022-09-03T16:53:12;3.42;;;2.05;;
51738;SDS011;37815;52.692;6.226;2022-09-03T17:48:17;2.78;;;1.50;;
51738;SDS011;37815;52.692;6.226;2022-09-03T18:00:37;2.53;;;1.90;;
51738;SDS011;37815;52.692;6.226;2022-09-03T18:31:50;2.50;;;1.88;;
51738;SDS011;37815;52.692;6.226;2022-09-03T18:49:39;6.40;;;1.85;;
51738;SDS011;37815;52.692;6.226;2022-09-03T18:55:25;2.83;;;1.80;;
51738;SDS011;37815;52.692;6.226;2022-09-03T19:01:37;2.25;;;2.00;;
51738;SDS011;37815;52.692;6.226;2022-09-03T19:13:13;3.22;;;1.80;;
51738;SDS011;37815;52.692;6.226;2022-09-03T19:19:08;2.45;;;1.60;;
51738;SDS011;37815;52.692;6.226;2022-09-03T19:24:50;1.98;;;1.83;;
51738;SDS011;37815;52.692;6.226;2022-09-03T19:30:43;4.38;;;1.80;;
51738;SDS011;37815;52.692;6.226;2022-09-03T19:54:30;2.45;;;1.83;;
51738;SDS011;37815;52.692;6.226;2022-09-03T20:00:09;3.47;;;1.73;;
51738;SDS011;37815;52.692;6.226;2022-09-03T20:05:47;2.50;;;1.67;;
51738;SDS011;37815;52.692;6.226;2022-09-03T20:11:25;2.75;;;2.10;;
51738;SDS011;37815;52.692;6.226;2022-09-03T20:39:44;3.28;;;1.65;;
51738;SDS011;37815;52.692;6.226;2022-09-03T20:45:19;1.50;;;1.40;;
51738;SDS011;37815;52.692;6.226;2022-09-03T20:50:57;1.77;;;1.45;;
51738;SDS011;37815;52.692;6.226;2022-09-03T20:56:24;1.70;;;1.60;;
51738;SDS011;37815;52.692;6.226;2022-09-03T21:13:33;2.08;;;1.88;;
51738;SDS011;37815;52.692;6.226;2022-09-03T21:19:06;1.65;;;1.55;;
51738;SDS011;37815;52.692;6.226;2022-09-03T21:24:30;1.92;;;1.70;;
51738;SDS011;37815;52.692;6.226;2022-09-03T21:30:04;1.85;;;1.50;;
51738;SDS011;37815;52.692;6.226;2022-09-03T21:35:57;2.35;;;1.70;;
51738;SDS011;37815;52.692;6.226;2022-09-03T21:41:28;2.17;;;1.75;;
51738;SDS011;37815;52.692;6.226;2022-09-03T21:46:57;1.98;;;1.52;;
51738;SDS011;37815;52.692;6.226;2022-09-03T22:03:44;1.73;;;1.45;;
51738;SDS011;37815;52.692;6.226;2022-09-03T22:09:11;1.90;;;1.70;;
51738;SDS011;37815;52.692;6.226;2022-09-03T22:14:41;2.08;;;1.60;;
51738;SDS011;37815;52.692;6.226;2022-09-03T22:20:05;1.70;;;1.60;;
51738;SDS011;37815;52.692;6.226;2022-09-03T22:25:31;2.97;;;1.60;;
51738;SDS011;37815;52.692;6.226;2022-09-03T22:37:01;1.50;;;1.40;;
51738;SDS011;37815;52.692;6.226;2022-09-03T22:42:42;1.55;;;1.33;;
51738;SDS011;37815;52.692;6.226;2022-09-03T23:05:53;2.45;;;1.50;;
51738;SDS011;37815;52.692;6.226;2022-09-03T23:11:44;1.85;;;1.50;;
51738;SDS011;37815;52.692;6.226;2022-09-03T23:17:09;1.73;;;1.63;;
51738;SDS011;37815;52.692;6.226;2022-09-03T23:22:39;2.10;;;1.70;;
51738;SDS011;37815;52.692;6.226;2022-09-03T23:33:44;2.40;;;1.58;;
51738;SDS011;37815;52.692;6.226;2022-09-03T23:39:08;2.25;;;1.58;;
51738;SDS011;37815;52.692;6.226;2022-09-03T23:45:00;1.80;;;1.70;;
